Time;durP1;ratioP1;P1;durP2;ratioP2;P2;SDS_P1;SDS_P2;PMS_P1;PMS_P2;Temp;Humidity;BMP_temperature;BMP_pressure;BME280_temperature;BME280_humidity;BME280_pressure;Samples;Min_cycle;Max_cycle;Signal;HPM_P1;HPM_P2
2021/01/04 00:01:53;;;;;;;41.60;23.07;;;1.20;99.90;;;;;;5050496;28;20805;-86
2021/01/04 00:05:03;;;;;;;37.13;21.57;;;1.20;99.90;;;;;;5055149;28;20508;-88
2021/01/04 00:07:56;;;;;;;32.70;20.87;;;1.20;99.90;;;;;;5028264;28;20981;-87
2021/01/04 00:10:31;;;;;;;34.73;21.60;;;1.30;99.90;;;;;;5056371;28;20450;-86
2021/01/04 00:13:01;;;;;;;44.87;24.17;;;1.20;99.90;;;;;;5056489;28;20568;-86
2021/01/04 00:15:33;;;;;;;44.30;26.17;;;1.30;99.90;;;;;;5056351;28;20447;-87
2021/01/04 00:18:37;;;;;;;40.77;25.17;;;1.30;99.90;;;;;;5055179;28;20493;-86
2021/01/04 00:21:08;;;;;;;35.93;21.23;;;1.30;99.90;;;;;;5051614;28;20454;-86
2021/01/04 00:23:55;;;;;;;41.00;23.57;;;1.30;99.90;;;;;;5052951;28;20979;-87
2021/01/04 00:26:26;;;;;;;38.37;24.53;;;1.30;99.90;;;;;;5054130;28;20452;-87
2021/01/04 00:28:53;;;;;;;40.17;24.20;;;1.30;99.90;;;;;;5055829;28;20452;-86
2021/01/04 00:31:23;;;;;;;41.40;24.10;;;1.30;99.90;;;;;;5055860;28;20445;-87
2021/01/04 00:33:55;;;;;;;37.93;23.63;;;1.30;99.90;;;;;;5054795;28;20454;-87
2021/01/04 00:36:24;;;;;;;38.83;22.30;;;1.30;99.90;;;;;;5055763;28;20461;-87
2021/01/04 00:39:17;;;;;;;38.90;24.40;;;1.30;99.90;;;;;;5055968;28;20500;-87
2021/01/04 00:41:56;;;;;;;39.00;21.63;;;1.30;99.90;;;;;;5045306;28;20450;-87
2021/01/04 00:44:28;;;;;;;37.97;22.23;;;1.40;99.90;;;;;;5055838;28;20779;-87
2021/01/04 00:47:02;;;;;;;38.77;23.80;;;1.30;99.90;;;;;;5055704;28;20821;-87
2021/01/04 00:49:32;;;;;;;37.90;23.17;;;1.30;99.90;;;;;;5054656;28;20488;-87
2021/01/04 00:52:07;;;;;;;36.93;21.83;;;1.20;99.90;;;;;;5055412;28;20488;-86
2021/01/04 00:54:42;;;;;;;35.43;22.10;;;1.20;99.90;;;;;;5055440;28;20453;-87
2021/01/04 00:57:35;;;;;;;40.03;22.60;;;1.20;99.90;;;;;;5055368;28;20446;-87
2021/01/04 01:00:12;;;;;;;39.03;22.40;;;1.20;99.90;;;;;;5051181;28;20458;-87
2021/01/04 01:02:57;;;;;;;39.40;23.50;;;1.20;99.90;;;;;;5055224;28;20464;-87
2021/01/04 01:05:37;;;;;;;41.80;23.80;;;1.20;99.90;;;;;;5054988;28;21036;-87
2021/01/04 01:08:11;;;;;;;38.10;23.93;;;1.20;99.90;;;;;;5050049;28;20441;-88
2021/01/04 01:10:41;;;;;;;41.17;24.67;;;1.20;99.90;;;;;;5055152;28;20443;-86
2021/01/04 01:13:19;;;;;;;38.80;22.57;;;1.20;99.90;;;;;;5051102;28;20439;-87
2021/01/04 01:16:00;;;;;;;37.83;23.93;;;1.20;99.90;;;;;;5055145;28;20480;-87
2021/01/04 01:18:33;;;;;;;37.07;21.07;;;1.20;99.90;;;;;;5053799;28;20512;-87
2021/01/04 01:21:05;;;;;;;37.00;22.87;;;1.20;99.90;;;;;;5055023;28;20465;-88
2021/01/04 01:23:32;;;;;;;40.37;22.90;;;1.20;99.90;;;;;;5054933;28;20473;-87
2021/01/04 01:26:13;;;;;;;34.40;22.07;;;1.20;99.90;;;;;;5054920;28;20839;-85
2021/01/04 01:29:13;;;;;;;42.70;22.77;;;1.20;99.90;;;;;;5054855;28;20451;-87
2021/01/04 01:32:15;;;;;;;41.60;22.63;;;1.20;99.90;;;;;;5054948;28;20447;-87
2021/01/04 01:35:04;;;;;;;35.03;21.17;;;1.20;99.90;;;;;;5053683;28;20485;-87
2021/01/04 01:37:55;;;;;;;30.20;19.80;;;1.30;99.90;;;;;;5054814;28;20524;-88
2021/01/04 01:40:49;;;;;;;39.07;21.33;;;1.80;99.90;;;;;;5054495;28;20451;-88
2021/01/04 01:43:35;;;;;;;35.80;21.03;;;1.30;99.90;;;;;;5054512;28;20457;-87
2021/01/04 01:46:08;;;;;;;35.67;21.20;;;1.30;99.90;;;;;;5054737;28;20453;-87
2021/01/04 01:48:46;;;;;;;35.40;21.47;;;1.30;99.90;;;;;;5053398;28;20473;-87
2021/01/04 01:51:26;;;;;;;40.73;22.23;;;1.30;99.90;;;;;;5054539;28;20469;-86
2021/01/04 01:54:02;;;;;;;34.13;18.60;;;1.30;99.90;;;;;;5054382;28;20458;-87
2021/01/04 01:56:44;;;;;;;38.50;22.63;;;1.30;99.90;;;;;;5054288;28;20456;-88
2021/01/04 01:59:24;;;;;;;33.00;21.03;;;1.30;99.90;;;;;;5054149;28;20491;-87
2021/01/04 02:02:01;;;;;;;35.50;19.77;;;1.30;99.90;;;;;;5054188;28;20445;-87
2021/01/04 02:04:38;;;;;;;38.27;21.47;;;1.20;99.90;;;;;;5052915;28;20462;-88
2021/01/04 02:07:11;;;;;;;36.90;20.70;;;1.20;99.90;;;;;;5048708;28;20806;-87
2021/01/04 02:09:45;;;;;;;42.00;21.60;;;1.10;99.90;;;;;;5054129;28;20508;-88
2021/01/04 02:12:21;;;;;;;33.03;20.97;;;1.10;99.90;;;;;;5053987;28;20461;-87
2021/01/04 02:14:56;;;;;;;38.77;22.07;;;1.10;99.90;;;;;;5046741;28;20823;-87
2021/01/04 02:18:04;;;;;;;33.63;20.53;;;1.20;99.90;;;;;;5049571;28;20481;-86
2021/01/04 02:21:08;;;;;;;31.20;19.37;;;1.20;99.90;;;;;;5049723;28;20453;-87
2021/01/04 02:23:43;;;;;;;34.77;20.00;;;1.30;99.90;;;;;;5053695;28;20454;-87
2021/01/04 02:26:17;;;;;;;36.17;21.33;;;1.20;99.90;;;;;;5053693;28;20458;-87
2021/01/04 02:29:00;;;;;;;35.40;21.77;;;1.30;99.90;;;;;;5053692;28;20442;-86
2021/01/04 02:31:27;;;;;;;37.70;21.50;;;;;;;;;;5053639;28;20510;-87
2021/01/04 02:33:54;;;;;;;32.60;19.90;;;1.20;99.90;;;;;;5052676;28;20442;-86
2021/01/04 02:36:23;;;;;;;34.27;20.43;;;1.20;99.90;;;;;;5053534;28;20445;-87
2021/01/04 02:39:02;;;;;;;41.90;23.37;;;1.20;99.90;;;;;;5053497;28;20494;-86
2021/01/04 02:41:40;;;;;;;36.17;21.33;;;1.20;99.90;;;;;;5053434;28;20447;-86
2021/01/04 02:44:06;;;;;;;41.77;22.37;;;1.20;99.90;;;;;;5053444;28;20973;-86
2021/01/04 02:46:36;;;;;;;34.60;20.93;;;1.20;99.90;;;;;;5053507;28;20826;-86
2021/01/04 02:49:11;;;;;;;40.93;23.23;;;1.10;99.90;;;;;;5052148;28;20455;-87
2021/01/04 02:51:43;;;;;;;38.27;23.50;;;1.20;99.90;;;;;;5053236;28;20539;-86
2021/01/04 02:54:21;;;;;;;41.90;22.70;;;1.10;99.90;;;;;;5053180;28;20458;-86
2021/01/04 02:56:57;;;;;;;37.00;20.67;;;1.10;99.90;;;;;;5053224;28;20454;-87
2021/01/04 02:59:49;;;;;;;42.30;22.20;;;1.10;99.90;;;;;;5053062;28;20497;-87
2021/01/04 03:02:22;;;;;;;46.60;25.70;;;1.10;99.90;;;;;;5053161;28;20507;-88
2021/01/04 03:04:50;;;;;;;39.30;21.80;;;1.20;99.90;;;;;;5048916;28;20491;-87
2021/01/04 03:07:19;;;;;;;35.60;22.77;;;1.10;99.90;;;;;;5050142;28;20446;-87
2021/01/04 03:09:48;;;;;;;41.63;24.10;;;1.10;99.90;;;;;;5052806;28;20937;-87
2021/01/04 03:12:18;;;;;;;37.80;22.90;;;1.10;99.90;;;;;;5053063;28;20449;-87
2021/01/04 03:15:16;;;;;;;40.83;23.97;;;1.20;99.90;;;;;;5053043;28;20484;-88
2021/01/04 03:17:54;;;;;;;38.97;23.00;;;1.20;99.90;;;;;;5039486;28;20477;-86
2021/01/04 03:20:23;;;;;;;40.67;23.40;;;1.10;99.90;;;;;;5049056;28;20810;-86
2021/01/04 03:22:50;;;;;;;42.30;24.07;;;1.10;99.90;;;;;;5049759;28;20439;-87
2021/01/04 03:25:21;;;;;;;37.57;23.37;;;1.10;99.90;;;;;;5052936;28;20457;-88
2021/01/04 03:27:49;;;;;;;43.70;25.37;;;1.10;99.90;;;;;;5052894;28;20454;-86
2021/01/04 03:30:16;;;;;;;39.67;23.13;;;1.10;99.90;;;;;;5052771;28;20450;-86
2021/01/04 03:32:42;;;;;;;39.20;23.97;;;1.10;99.90;;;;;;5048204;28;20442;-86
2021/01/04 03:35:10;;;;;;;40.80;23.37;;;1.10;99.90;;;;;;5048626;28;20457;-87
2021/01/04 03:37:36;;;;;;;39.90;23.03;;;1.10;99.90;;;;;;5056711;28;20494;-88
2021/01/04 03:40:04;;;;;;;39.57;24.23;;;1.00;99.90;;;;;;5056875;28;20461;-86
2021/01/04 03:42:30;;;;;;;34.27;20.90;;;1.00;99.90;;;;;;5055124;28;20459;-87
2021/01/04 03:44:57;;;;;;;36.77;23.67;;;1.00;99.90;;;;;;5057027;28;20452;-87
2021/01/04 03:47:24;;;;;;;42.03;23.80;;;1.00;99.90;;;;;;5053541;28;20458;-86
2021/01/04 03:49:50;;;;;;;37.50;21.90;;;1.00;99.90;;;;;;5055418;28;20450;-87
2021/01/04 03:52:17;;;;;;;36.20;22.90;;;1.00;99.90;;;;;;5056405;28;20540;-87
2021/01/04 03:54:44;;;;;;;36.50;21.30;;;1.00;99.90;;;;;;5056839;28;20462;-87
2021/01/04 03:57:11;;;;;;;37.23;22.80;;;1.00;99.90;;;;;;5056645;28;20451;-87
2021/01/04 03:59:37;;;;;;;37.37;21.97;;;0.90;99.90;;;;;;5056328;28;20447;-87
2021/01/04 04:02:04;;;;;;;38.57;22.97;;;1.00;99.90;;;;;;5056349;28;20446;-87
2021/01/04 04:04:31;;;;;;;39.37;23.53;;;1.00;99.90;;;;;;5055211;28;20473;-86
2021/01/04 04:06:57;;;;;;;33.33;19.67;;;1.00;99.90;;;;;;5056307;28;21127;-87
2021/01/04 04:09:24;;;;;;;34.20;21.00;;;1.00;99.90;;;;;;5056329;28;20463;-87
2021/01/04 04:11:51;;;;;;;38.20;21.60;;;1.00;99.90;;;;;;5053155;28;20469;-87
2021/01/04 04:14:18;;;;;;;34.10;20.97;;;1.00;99.90;;;;;;5056174;28;20497;-87
2021/01/04 04:16:47;;;;;;;36.83;22.70;;;0.90;99.90;;;;;;5056229;28;20446;-86
2021/01/04 04:19:14;;;;;;;31.33;21.13;;;1.00;99.90;;;;;;5052953;28;20498;-86
2021/01/04 04:21:40;;;;;;;34.57;20.90;;;1.00;99.90;;;;;;5056092;28;20471;-87
2021/01/04 04:24:07;;;;;;;32.83;20.53;;;0.80;99.90;;;;;;5055947;28;20960;-86
2021/01/04 04:26:34;;;;;;;35.90;21.57;;;1.00;99.90;;;;;;5055936;28;20459;-87
2021/01/04 04:29:00;;;;;;;35.00;22.10;;;1.00;99.90;;;;;;5055974;28;20463;-88
2021/01/04 04:31:26;;;;;;;36.50;21.73;;;1.10;99.90;;;;;;5055893;28;20446;-86
2021/01/04 04:33:53;;;;;;;35.73;20.60;;;1.10;99.90;;;;;;5051875;28;20810;-87
2021/01/04 04:36:22;;;;;;;31.63;20.60;;;1.10;99.90;;;;;;5055770;28;20441;-87
2021/01/04 04:38:49;;;;;;;36.33;22.30;;;1.10;99.90;;;;;;5055779;28;20866;-87
2021/01/04 04:41:26;;;;;;;37.87;21.50;;;1.10;99.90;;;;;;5055725;28;20940;-86
2021/01/04 04:44:00;;;;;;;38.67;22.63;;;1.10;99.90;;;;;;5053824;28;20448;-86
2021/01/04 04:46:38;;;;;;;39.13;23.60;;;1.10;99.90;;;;;;5055421;28;20862;-87
2021/01/04 04:49:12;;;;;;;35.83;22.63;;;1.10;99.90;;;;;;5053554;28;20453;-86
2021/01/04 04:51:55;;;;;;;40.80;23.70;;;1.10;99.90;;;;;;5055348;28;20489;-86
2021/01/04 04:54:38;;;;;;;35.47;21.30;;;1.10;99.90;;;;;;5055709;28;20952;-85
2021/01/04 04:57:25;;;;;;;36.80;23.10;;;0.90;99.90;;;;;;5055800;28;20459;-87
2021/01/04 05:00:03;;;;;;;34.80;21.33;;;1.10;99.90;;;;;;5055417;28;20456;-86
2021/01/04 05:02:43;;;;;;;36.90;21.40;;;1.10;99.90;;;;;;5055333;28;20451;-86
2021/01/04 05:05:21;;;;;;;42.83;24.13;;;1.10;99.90;;;;;;5054160;28;20537;-87
2021/01/04 05:07:56;;;;;;;38.00;23.63;;;1.10;99.90;;;;;;5055448;28;21019;-86
2021/01/04 05:10:24;;;;;;;36.63;22.50;;;1.10;99.90;;;;;;5055315;28;20457;-86
2021/01/04 05:13:12;;;;;;;39.30;23.00;;;1.00;99.90;;;;;;5055100;28;20450;-87
2021/01/04 05:15:50;;;;;;;40.43;22.37;;;1.10;99.90;;;;;;5055125;28;20529;-87
2021/01/04 05:19:04;;;;;;;36.00;22.00;;;1.10;99.90;;;;;;5049730;28;20528;-88
2021/01/04 05:22:04;;;;;;;33.70;21.03;;;0.60;99.90;;;;;;5055102;28;20452;-86
2021/01/04 05:25:05;;;;;;;37.90;23.80;;;1.20;99.90;;;;;;5051725;28;20446;-87
2021/01/04 05:28:08;;;;;;;37.07;23.60;;;1.10;99.90;;;;;;5034724;28;20464;-86
2021/01/04 05:31:13;;;;;;;38.00;22.30;;;1.10;99.90;;;;;;5054791;28;20450;-86
2021/01/04 05:33:58;;;;;;;39.23;22.57;;;1.10;99.90;;;;;;5038041;28;20962;-87
2021/01/04 05:36:41;;;;;;;34.03;22.00;;;1.10;99.90;;;;;;5054687;28;20457;-87
2021/01/04 05:39:18;;;;;;;36.33;22.20;;;1.10;99.90;;;;;;5054636;28;20504;-86
2021/01/04 05:42:11;;;;;;;35.50;22.33;;;1.10;99.90;;;;;;5054490;28;20954;-85
2021/01/04 05:44:53;;;;;;;35.90;22.00;;;1.00;99.90;;;;;;5054594;28;20454;-88
2021/01/04 05:47:34;;;;;;;38.90;22.83;;;1.00;99.90;;;;;;5054469;28;20457;-87
2021/01/04 05:50:14;;;;;;;38.80;22.50;;;1.10;99.90;;;;;;5053362;28;20467;-87
2021/01/04 05:52:40;;;;;;;36.43;22.63;;;1.10;99.90;;;;;;5054178;28;20486;-88
2021/01/04 05:55:08;;;;;;;32.67;20.90;;;1.00;99.90;;;;;;5054326;28;20450;-87
2021/01/04 05:57:44;;;;;;;41.47;22.90;;;1.10;99.90;;;;;;5051306;28;20445;-86
2021/01/04 06:00:12;;;;;;;38.80;23.20;;;1.10;99.90;;;;;;5053875;28;20446;-87
2021/01/04 06:02:39;;;;;;;34.00;21.70;;;1.00;99.90;;;;;;5054050;28;20466;-86
2021/01/04 06:05:09;;;;;;;37.73;22.90;;;1.10;99.90;;;;;;5052836;28;20452;-86
2021/01/04 06:07:36;;;;;;;37.87;22.10;;;1.10;99.90;;;;;;5054181;28;20450;-88
2021/01/04 06:10:02;;;;;;;40.23;23.80;;;1.20;99.90;;;;;;5054073;28;20439;-87
2021/01/04 06:12:34;;;;;;;36.60;22.90;;;1.20;99.90;;;;;;5054005;28;20448;-87
2021/01/04 06:15:04;;;;;;;37.40;23.03;;;1.20;99.90;;;;;;5053899;28;20451;-87
2021/01/04 06:17:34;;;;;;;38.73;22.93;;;1.20;99.90;;;;;;5053831;28;20442;-87
2021/01/04 06:20:21;;;;;;;37.90;24.07;;;1.20;99.90;;;;;;5052709;28;20462;-87
2021/01/04 06:22:49;;;;;;;35.47;22.60;;;1.20;99.90;;;;;;5053854;28;20481;-88
2021/01/04 06:25:17;;;;;;;35.37;21.93;;;1.20;99.90;;;;;;5053818;28;20476;-86
2021/01/04 06:27:45;;;;;;;41.10;24.30;;;1.10;99.90;;;;;;5053770;28;20445;-86
2021/01/04 06:30:26;;;;;;;37.83;23.07;;;1.20;99.90;;;;;;5053688;28;20446;-87
2021/01/04 06:32:54;;;;;;;35.23;22.23;;;1.10;99.90;;;;;;5053695;28;20933;-88
2021/01/04 06:35:26;;;;;;;38.43;23.03;;;1.10;99.90;;;;;;5035109;28;20457;-86
2021/01/04 06:38:13;;;;;;;35.23;23.10;;;1.10;99.90;;;;;;5053355;28;20485;-88
2021/01/04 06:40:41;;;;;;;35.67;21.80;;;1.10;99.90;;;;;;5053412;28;20455;-86
2021/01/04 06:43:21;;;;;;;35.47;22.10;;;0.90;99.90;;;;;;5053056;28;20455;-86
2021/01/04 06:46:05;;;;;;;36.90;23.20;;;1.10;99.90;;;;;;5050272;28;20527;-86
2021/01/04 06:48:38;;;;;;;32.00;21.77;;;1.00;99.90;;;;;;5054486;28;20514;-85
2021/01/04 06:51:32;;;;;;;37.43;23.60;;;1.00;99.90;;;;;;5065066;28;20476;-86
2021/01/04 06:54:21;;;;;;;33.80;22.43;;;1.10;99.90;;;;;;5053160;28;20957;-86
2021/01/04 06:57:29;;;;;;;34.47;20.93;;;1.10;99.90;;;;;;5051537;28;20462;-87
2021/01/04 07:00:27;;;;;;;37.40;21.50;;;1.20;99.90;;;;;;5053105;28;20933;-86
2021/01/04 07:03:28;;;;;;;34.57;22.43;;;1.20;99.90;;;;;;5051753;28;20491;-92
2021/01/04 07:06:25;;;;;;;43.00;23.33;;;1.20;99.90;;;;;;5055076;28;20458;-92
2021/01/04 07:09:22;;;;;;;38.50;22.93;;;1.20;99.90;;;;;;5053914;28;20518;-90
2021/01/04 07:11:55;;;;;;;43.67;25.20;;;1.20;99.90;;;;;;5051393;28;20458;-92
2021/01/04 07:14:44;;;;;;;32.93;21.27;;;1.20;99.90;;;;;;5053844;28;20446;-92
2021/01/04 07:17:35;;;;;;;36.60;22.77;;;1.20;99.90;;;;;;5047612;28;20458;-85
2021/01/04 07:20:23;;;;;;;39.63;24.37;;;1.30;99.90;;;;;;5006572;28;20440;-85
2021/01/04 07:23:01;;;;;;;36.93;23.30;;;1.20;99.90;;;;;;5052909;28;20453;-85
2021/01/04 07:25:38;;;;;;;36.27;21.90;;;1.20;99.90;;;;;;5052884;28;20526;-86
2021/01/04 07:28:11;;;;;;;39.60;22.73;;;1.20;99.90;;;;;;5052583;28;20462;-88
2021/01/04 07:30:45;;;;;;;35.47;21.83;;;1.20;99.90;;;;;;5052768;28;20461;-89
2021/01/04 07:33:22;;;;;;;34.80;23.37;;;1.20;99.90;;;;;;5051644;28;20453;-88
2021/01/04 07:35:57;;;;;;;36.33;22.30;;;1.20;99.90;;;;;;5052760;28;20472;-85
2021/01/04 07:38:33;;;;;;;35.13;21.83;;;1.20;99.90;;;;;;5052825;28;20571;-88
2021/01/04 07:41:29;;;;;;;37.23;22.03;;;1.10;99.90;;;;;;5052814;28;20464;-84
2021/01/04 07:44:16;;;;;;;38.07;22.80;;;1.20;99.90;;;;;;5042595;28;20458;-87
2021/01/04 07:47:30;;;;;;;42.77;24.43;;;1.20;99.90;;;;;;5052723;28;20446;-85
2021/01/04 07:50:44;;;;;;;41.27;24.60;;;1.20;99.90;;;;;;5051640;28;20454;-84
2021/01/04 07:53:51;;;;;;;40.17;23.53;;;1.20;99.90;;;;;;5052709;28;20448;-87
2021/01/04 07:56:48;;;;;;;35.97;23.07;;;1.20;99.90;;;;;;5052863;28;20782;-85
2021/01/04 07:59:39;;;;;;;37.90;24.70;;;1.20;99.90;;;;;;5053237;28;20497;-85
2021/01/04 08:02:44;;;;;;;37.30;22.97;;;1.20;99.90;;;;;;5052970;28;20472;-85
2021/01/04 08:05:35;;;;;;;35.83;22.40;;;1.20;99.90;;;;;;5051649;28;20454;-85
2021/01/04 08:08:24;;;;;;;39.37;23.20;;;1.20;99.90;;;;;;5052783;28;20454;-85
2021/01/04 08:11:26;;;;;;;41.43;23.60;;;1.20;99.90;;;;;;5052612;28;20452;-85
2021/01/04 08:14:19;;;;;;;33.03;21.60;;;1.30;99.90;;;;;;5052407;28;20450;-84
2021/01/04 08:16:50;;;;;;;35.07;22.10;;;1.20;99.90;;;;;;5052414;28;20452;-88
2021/01/04 08:19:18;;;;;;;36.43;23.50;;;1.20;99.90;;;;;;5051092;28;20496;-87
2021/01/04 08:21:56;;;;;;;35.60;22.30;;;1.30;99.90;;;;;;5053219;28;20797;-85
2021/01/04 08:24:30;;;;;;;37.80;24.30;;;1.30;99.90;;;;;;5053301;28;20968;-87
2021/01/04 08:27:12;;;;;;;36.80;22.20;;;1.20;99.90;;;;;;5056211;28;20461;-87
2021/01/04 08:29:48;;;;;;;33.63;22.13;;;1.30;99.90;;;;;;5056153;28;20469;-85
2021/01/04 08:32:20;;;;;;;37.40;23.70;;;1.30;99.90;;;;;;5054334;28;20453;-88
2021/01/04 08:34:47;;;;;;;39.80;24.60;;;1.30;99.90;;;;;;5055055;28;20457;-87
2021/01/04 08:37:17;;;;;;;32.77;21.87;;;1.40;99.90;;;;;;5056345;28;20449;-88
2021/01/04 08:39:46;;;;;;;34.73;22.03;;;1.40;99.90;;;;;;5049697;28;20840;-87
2021/01/04 08:42:31;;;;;;;35.20;23.00;;;1.40;99.90;;;;;;5056003;28;20445;-86
2021/01/04 08:45:02;;;;;;;37.27;21.77;;;1.30;99.90;;;;;;5052543;28;20440;-86
2021/01/04 08:47:34;;;;;;;43.93;24.07;;;1.30;99.90;;;;;;5056140;28;20804;-85
2021/01/04 08:50:15;;;;;;;40.20;23.37;;;1.40;99.90;;;;;;5054449;28;20450;-87
2021/01/04 08:52:45;;;;;;;37.73;22.10;;;1.50;99.90;;;;;;5055667;28;20481;-86
2021/01/04 08:55:24;;;;;;;38.87;23.40;;;1.50;99.90;;;;;;5055688;28;20446;-84
2021/01/04 08:57:52;;;;;;;34.70;22.70;;;1.50;99.90;;;;;;5055523;28;20456;-87
2021/01/04 09:00:21;;;;;;;39.50;23.77;;;1.60;99.90;;;;;;5050486;28;20450;-85
2021/01/04 09:02:48;;;;;;;35.37;23.13;;;1.60;99.90;;;;;;5051178;28;20476;-89
2021/01/04 09:05:27;;;;;;;36.43;21.07;;;1.60;99.90;;;;;;5052609;28;20455;-87
2021/01/04 09:07:56;;;;;;;36.40;23.13;;;1.60;99.90;;;;;;5055163;28;20438;-85
2021/01/04 09:10:24;;;;;;;39.03;22.27;;;1.60;99.90;;;;;;5055075;28;20446;-85
2021/01/04 09:12:56;;;;;;;30.33;19.77;;;1.50;99.90;;;;;;5049852;28;20446;-84
2021/01/04 09:15:32;;;;;;;35.30;22.13;;;1.50;99.90;;;;;;5053144;28;20443;-85
2021/01/04 09:18:30;;;;;;;31.30;20.73;;;1.50;99.90;;;;;;5054035;28;20466;-85
2021/01/04 09:21:00;;;;;;;33.93;21.30;;;1.50;99.90;;;;;;5054532;28;20945;-84
2021/01/04 09:23:33;;;;;;;42.10;24.70;;;1.60;99.90;;;;;;5054736;28;20457;-85
2021/01/04 09:26:12;;;;;;;35.17;21.80;;;1.80;99.90;;;;;;5054798;28;20453;-84
2021/01/04 09:28:45;;;;;;;37.43;22.70;;;1.60;99.90;;;;;;5054758;28;20454;-87
2021/01/04 09:31:14;;;;;;;37.10;22.70;;;1.70;99.90;;;;;;5051965;28;20451;-85
2021/01/04 09:33:47;;;;;;;34.00;21.73;;;1.70;99.90;;;;;;5052705;28;20453;-85
2021/01/04 09:36:14;;;;;;;37.40;21.43;;;1.60;99.90;;;;;;5055117;28;20458;-88
2021/01/04 09:38:41;;;;;;;34.03;22.50;;;1.60;99.90;;;;;;5054375;28;20485;-84
2021/01/04 09:41:10;;;;;;;33.03;21.90;;;1.60;99.90;;;;;;5051471;28;20461;-86
2021/01/04 09:43:37;;;;;;;36.13;22.23;;;1.60;99.90;;;;;;5055001;28;20809;-88
2021/01/04 09:46:13;;;;;;;39.83;23.37;;;1.70;99.90;;;;;;5054703;28;20451;-88
2021/01/04 09:48:46;;;;;;;33.03;22.37;;;1.70;99.90;;;;;;5051751;28;20442;-90
2021/01/04 09:51:17;;;;;;;35.73;21.77;;;1.90;99.90;;;;;;5052772;28;20489;-87
2021/01/04 09:53:52;;;;;;;35.37;20.50;;;1.60;99.90;;;;;;5054805;28;20644;-89
2021/01/04 09:56:19;;;;;;;35.73;21.10;;;1.70;99.90;;;;;;5050197;28;20450;-87
2021/01/04 09:58:47;;;;;;;33.40;21.60;;;1.80;99.90;;;;;;5054790;28;20490;-90
2021/01/04 10:01:16;;;;;;;33.43;21.50;;;1.80;99.90;;;;;;5054300;28;20485;-88
2021/01/04 10:03:53;;;;;;;34.93;21.73;;;1.70;99.90;;;;;;5051229;28;20455;-88
2021/01/04 10:06:21;;;;;;;32.10;20.20;;;1.80;99.90;;;;;;5054377;28;20460;-88
2021/01/04 10:08:48;;;;;;;35.87;22.23;;;1.80;99.90;;;;;;5052879;28;20459;-88
2021/01/04 10:11:19;;;;;;;33.60;20.43;;;1.80;99.90;;;;;;5054075;28;20931;-90
2021/01/04 10:13:45;;;;;;;32.03;19.20;;;1.90;99.90;;;;;;5054030;28;20497;-89
2021/01/04 10:16:18;;;;;;;35.40;20.90;;;1.90;99.90;;;;;;5054218;28;20804;-89
2021/01/04 10:18:51;;;;;;;31.77;20.57;;;1.80;99.90;;;;;;5052809;28;20491;-90
2021/01/04 10:21:21;;;;;;;33.80;20.87;;;1.90;99.90;;;;;;5054319;28;20438;-89
2021/01/04 10:23:53;;;;;;;34.67;21.43;;;2.00;99.90;;;;;;5064017;28;20509;-88
2021/01/04 10:26:19;;;;;;;34.53;21.00;;;2.00;99.90;;;;;;5073691;28;20452;-89
2021/01/04 10:28:46;;;;;;;33.70;20.50;;;2.00;99.90;;;;;;5073954;28;20454;-89
2021/01/04 10:31:23;;;;;;;27.90;19.37;;;2.00;99.90;;;;;;5073633;28;20454;-90
2021/01/04 10:33:50;;;;;;;31.37;20.63;;;1.90;99.90;;;;;;5072308;28;20441;-88
2021/01/04 10:36:23;;;;;;;29.67;19.33;;;2.00;99.90;;;;;;5068148;28;20469;-90
2021/01/04 10:38:57;;;;;;;35.27;20.30;;;1.90;99.90;;;;;;5073893;28;20493;-87
2021/01/04 10:41:28;;;;;;;29.80;19.60;;;1.90;99.90;;;;;;5069158;28;20801;-89
2021/01/04 10:44:05;;;;;;;33.93;20.60;;;1.90;99.90;;;;;;5073883;28;20449;-90
2021/01/04 10:46:36;;;;;;;28.13;18.43;;;2.10;99.90;;;;;;5073812;28;20452;-89
2021/01/04 10:49:05;;;;;;;30.53;18.73;;;2.00;99.90;;;;;;5073511;28;20451;-88
2021/01/04 10:51:34;;;;;;;30.60;20.37;;;1.90;99.90;;;;;;5074030;28;20570;-90
2021/01/04 10:54:11;;;;;;;29.67;19.03;;;1.80;99.90;;;;;;5074896;28;20815;-90
2021/01/04 10:56:44;;;;;;;34.33;20.63;;;1.90;99.90;;;;;;5074882;28;20434;-90
2021/01/04 10:59:22;;;;;;;36.40;21.67;;;1.90;99.90;;;;;;5073292;28;20508;-89
2021/01/04 11:01:51;;;;;;;33.80;20.47;;;2.00;99.90;;;;;;5073205;28;20460;-90
2021/01/04 11:04:20;;;;;;;30.57;19.20;;;2.10;99.90;;;;;;5072403;28;20498;-89
2021/01/04 11:06:48;;;;;;;32.53;20.97;;;2.10;99.90;;;;;;5073710;28;20457;-89
2021/01/04 11:09:18;;;;;;;31.47;17.77;;;2.10;99.90;;;;;;5073642;28;20449;-89
2021/01/04 11:11:47;;;;;;;25.30;16.87;;;2.10;99.90;;;;;;5074645;28;20860;-89
2021/01/04 11:14:16;;;;;;;25.60;16.70;;;2.10;99.90;;;;;;5066474;28;20452;-88
2021/01/04 11:16:44;;;;;;;25.70;17.33;;;1.80;99.90;;;;;;5069486;28;20949;-87
2021/01/04 11:19:12;;;;;;;19.17;14.20;;;2.00;99.90;;;;;;5071230;28;20553;-88
2021/01/04 11:21:40;;;;;;;23.80;14.70;;;1.90;99.90;;;;;;5072428;28;20450;-88
2021/01/04 11:24:08;;;;;;;23.53;15.50;;;1.70;99.90;;;;;;5072613;28;20452;-85
2021/01/04 11:26:34;;;;;;;26.30;15.90;;;1.90;99.90;;;;;;5072651;28;20444;-88
2021/01/04 11:29:00;;;;;;;21.30;14.30;;;1.70;99.90;;;;;;5072636;28;20443;-88
2021/01/04 11:31:30;;;;;;;19.17;12.33;;;1.80;99.90;;;;;;5072593;28;20447;-87
2021/01/04 11:33:56;;;;;;;25.73;15.27;;;1.80;99.90;;;;;;5071647;28;20806;-87
2021/01/04 11:36:23;;;;;;;24.70;14.27;;;1.90;99.90;;;;;;5073073;28;20474;-88
2021/01/04 11:38:50;;;;;;;19.17;12.90;;;2.00;99.90;;;;;;5070298;28;20477;-84
2021/01/04 11:41:16;;;;;;;17.13;12.07;;;2.00;99.90;;;;;;5072515;28;20461;-88
2021/01/04 11:43:42;;;;;;;22.80;14.40;;;2.00;99.90;;;;;;5072556;28;20507;-87
2021/01/04 11:46:09;;;;;;;21.13;13.60;;;2.00;99.90;;;;;;5072591;28;20467;-88
2021/01/04 11:48:35;;;;;;;20.87;13.23;;;2.00;99.90;;;;;;5068497;28;20447;-87
2021/01/04 11:51:01;;;;;;;16.47;10.80;;;2.00;99.90;;;;;;5069208;28;20969;-87
2021/01/04 11:53:30;;;;;;;18.50;13.07;;;1.90;99.90;;;;;;5072398;28;20457;-86
2021/01/04 11:55:57;;;;;;;24.47;15.70;;;2.00;99.90;;;;;;5072413;28;20503;-85
2021/01/04 11:58:23;;;;;;;25.83;15.07;;;1.90;99.90;;;;;;5075669;28;20500;-86
2021/01/04 12:00:50;;;;;;;27.40;18.93;;;1.90;99.90;;;;;;5076154;28;20992;-87
2021/01/04 12:03:17;;;;;;;17.77;13.33;;;1.90;99.90;;;;;;5075206;28;20454;-85
2021/01/04 12:05:43;;;;;;;21.37;13.60;;;1.90;99.90;;;;;;5076365;28;20547;-85
2021/01/04 12:08:09;;;;;;;18.53;12.73;;;1.80;99.90;;;;;;5076732;28;20936;-85
2021/01/04 12:10:37;;;;;;;21.53;15.77;;;1.80;99.90;;;;;;5076198;28;20451;-85
2021/01/04 12:13:06;;;;;;;17.43;12.37;;;1.90;99.90;;;;;;5076294;28;20458;-85
2021/01/04 12:15:32;;;;;;;16.70;10.97;;;1.90;99.90;;;;;;5074808;28;20463;-87
2021/01/04 12:17:58;;;;;;;12.80;11.10;;;1.80;99.90;;;;;;5075727;28;20467;-86
2021/01/04 12:20:25;;;;;;;12.20;8.87;;;1.80;99.90;;;;;;5075322;28;20452;-85
2021/01/04 12:22:51;;;;;;;11.97;9.00;;;1.90;99.90;;;;;;5076000;28;20896;-88
2021/01/04 12:25:17;;;;;;;12.50;8.43;;;1.90;99.90;;;;;;5076008;28;20453;-85
2021/01/04 12:27:45;;;;;;;11.30;8.87;;;1.90;99.90;;;;;;5075962;28;20449;-85
2021/01/04 12:30:12;;;;;;;13.23;9.47;;;1.80;99.90;;;;;;5076193;28;20874;-88
2021/01/04 12:32:41;;;;;;;13.33;9.30;;;1.90;99.90;;;;;;5076058;28;20967;-84
2021/01/04 12:35:09;;;;;;;12.87;8.77;;;1.80;99.90;;;;;;5074777;28;20442;-85
2021/01/04 12:37:35;;;;;;;12.87;8.53;;;1.90;99.90;;;;;;5076019;28;20444;-85
2021/01/04 12:40:02;;;;;;;13.23;9.10;;;1.90;99.90;;;;;;5075867;28;20503;-87
2021/01/04 12:42:28;;;;;;;15.80;10.60;;;1.90;99.90;;;;;;5075823;28;20456;-83
2021/01/04 12:44:55;;;;;;;16.77;10.03;;;1.90;99.90;;;;;;5075598;28;20503;-83
2021/01/04 12:47:21;;;;;;;12.20;8.73;;;1.80;99.90;;;;;;5075618;28;20455;-86
2021/01/04 12:49:48;;;;;;;13.20;8.30;;;;;;;;;;5074243;28;20808;-87
2021/01/04 12:52:14;;;;;;;14.40;9.70;;;1.80;99.90;;;;;;5075311;28;20594;-84
2021/01/04 12:54:43;;;;;;;13.30;9.57;;;1.60;99.90;;;;;;5075498;28;20453;-84
2021/01/04 12:57:10;;;;;;;14.60;9.50;;;1.70;99.90;;;;;;5075550;28;20457;-86
2021/01/04 12:59:38;;;;;;;12.90;9.23;;;1.60;99.90;;;;;;5075371;28;20989;-86
2021/01/04 13:02:06;;;;;;;15.27;10.10;;;1.60;99.90;;;;;;5075438;28;20560;-89
2021/01/04 13:04:32;;;;;;;17.47;9.93;;;1.60;99.90;;;;;;5074203;28;20485;-85
2021/01/04 13:06:59;;;;;;;15.63;10.97;;;1.80;99.90;;;;;;5071986;28;20459;-84
2021/01/04 13:09:26;;;;;;;12.80;8.00;;;1.60;99.90;;;;;;5051852;28;20894;-86
2021/01/04 13:11:54;;;;;;;14.77;10.83;;;1.60;99.90;;;;;;5054845;28;20485;-84
2021/01/04 13:14:21;;;;;;;13.30;9.60;;;1.70;99.90;;;;;;5054967;28;20887;-86
2021/01/04 13:16:48;;;;;;;14.67;8.30;;;1.70;99.90;;;;;;5051704;28;20454;-85
2021/01/04 13:19:16;;;;;;;17.00;10.23;;;1.70;99.90;;;;;;5051525;28;20512;-85